sensor_id;sensor_type;location;lat;lon;timestamp;pressure;altitude;pressure_sealevel;temperature;humidity
60228;BME280;46091;46.512;6.626;2022-09-21T05:33:41;97322.00;;;13.95;52.34
60228;BME280;46091;46.512;6.626;2022-09-21T05:35:56;97319.56;;;14.26;52.25
60228;BME280;46091;46.512;6.626;2022-09-21T05:38:05;97323.31;;;14.52;51.54
60228;BME280;46091;46.512;6.626;2022-09-21T05:40:11;97316.34;;;14.64;51.57
60228;BME280;46091;46.512;6.626;2022-09-21T05:42:15;97319.38;;;14.81;51.22
60228;BME280;46091;46.512;6.626;2022-09-21T05:44:19;97315.47;;;14.90;50.95
60228;BME280;46091;46.512;6.626;2022-09-21T05:46:34;97319.56;;;14.99;50.71
60228;BME280;46091;46.512;6.626;2022-09-21T05:48:43;97318.53;;;15.07;50.72
60228;BME280;46091;46.512;6.626;2022-09-21T05:50:55;97312.75;;;15.17;50.39
60228;BME280;46091;46.512;6.626;2022-09-21T05:53:15;97320.31;;;15.26;50.50
60228;BME280;46091;46.512;6.626;2022-09-21T05:55:39;97312.31;;;15.33;50.36
60228;BME280;46091;46.512;6.626;2022-09-21T05:57:52;97321.06;;;15.40;50.48
60228;BME280;46091;46.512;6.626;2022-09-21T06:00:05;97314.53;;;15.42;50.16
60228;BME280;46091;46.512;6.626;2022-09-21T06:02:19;97320.84;;;15.48;50.09
60228;BME280;46091;46.512;6.626;2022-09-21T06:04:27;97315.94;;;15.52;50.17
60228;BME280;46091;46.512;6.626;2022-09-21T06:06:30;97328.22;;;15.53;50.17
60228;BME280;46091;46.512;6.626;2022-09-21T06:08:34;97320.41;;;15.51;50.16
60228;BME280;46091;46.512;6.626;2022-09-21T06:10:38;97325.34;;;15.48;50.13
60228;BME280;46091;46.512;6.626;2022-09-21T06:12:42;97320.25;;;15.46;50.17
60228;BME280;46091;46.512;6.626;2022-09-21T06:14:45;97326.19;;;15.48;50.06
60228;BME280;46091;46.512;6.626;2022-09-21T06:16:48;97325.16;;;15.49;50.12
60228;BME280;46091;46.512;6.626;2022-09-21T06:18:51;97327.56;;;15.57;49.76
60228;BME280;46091;46.512;6.626;2022-09-21T06:20:56;97325.97;;;15.63;49.76
60228;BME280;46091;46.512;6.626;2022-09-21T06:23:00;97333.75;;;15.64;49.53
60228;BME280;46091;46.512;6.626;2022-09-21T06:25:04;97332.09;;;15.63;49.87
60228;BME280;46091;46.512;6.626;2022-09-21T06:27:08;97336.41;;;15.64;49.85
60228;BME280;46091;46.512;6.626;2022-09-21T06:29:11;97333.75;;;15.64;49.90
60228;BME280;46091;46.512;6.626;2022-09-21T06:31:19;97336.19;;;15.66;49.73
60228;BME280;46091;46.512;6.626;2022-09-21T06:33:25;97333.75;;;15.64;49.58
60228;BME280;46091;46.512;6.626;2022-09-21T06:35:30;97332.28;;;15.68;49.48
60228;BME280;46091;46.512;6.626;2022-09-21T06:37:35;97335.53;;;15.70;49.64
60228;BME280;46091;46.512;6.626;2022-09-21T06:39:41;97332.88;;;15.70;49.40
60228;BME280;46091;46.512;6.626;2022-09-21T06:41:44;97331.91;;;15.65;49.39
60228;BME280;46091;46.512;6.626;2022-09-21T06:43:51;97331.47;;;15.61;49.59
60228;BME280;46091;46.512;6.626;2022-09-21T06:45:57;97330.44;;;15.62;49.23
60228;BME280;46091;46.512;6.626;2022-09-21T06:48:01;97326.34;;;15.66;49.27
60228;BME280;46091;46.512;6.626;2022-09-21T06:50:06;97330.81;;;15.72;49.19
60228;BME280;46091;46.512;6.626;2022-09-21T06:52:12;97328.97;;;15.73;49.21
60228;BME280;46091;46.512;6.626;2022-09-21T06:54:17;97330.22;;;15.70;49.01
60228;BME280;46091;46.512;6.626;2022-09-21T06:56:20;97325.47;;;15.72;49.15
60228;BME280;46091;46.512;6.626;2022-09-21T06:58:24;97334.50;;;15.78;49.28
60228;BME280;46091;46.512;6.626;2022-09-21T07:00:30;97333.84;;;15.83;48.83
60228;BME280;46091;46.512;6.626;2022-09-21T07:02:34;97326.44;;;15.85;49.13
60228;BME280;46091;46.512;6.626;2022-09-21T07:04:38;97331.97;;;15.90;48.98
60228;BME280;46091;46.512;6.626;2022-09-21T07:06:41;97326.19;;;15.93;48.94
60228;BME280;46091;46.512;6.626;2022-09-21T07:08:45;97332.13;;;15.95;48.98
60228;BME280;46091;46.512;6.626;2022-09-21T07:11:13;97328.25;;;15.97;48.94
60228;BME280;46091;46.512;6.626;2022-09-21T07:13:17;97332.31;;;16.00;48.59
60228;BME280;46091;46.512;6.626;2022-09-21T07:15:20;97336.03;;;15.99;48.63
60228;BME280;46091;46.512;6.626;2022-09-21T07:17:30;97332.69;;;16.04;48.85
60228;BME280;46091;46.512;6.626;2022-09-21T07:19:33;97325.75;;;16.02;48.83
60228;BME280;46091;46.512;6.626;2022-09-21T07:21:38;97332.03;;;16.08;48.72
60228;BME280;46091;46.512;6.626;2022-09-21T07:23:42;97318.53;;;16.10;48.51
60228;BME280;46091;46.512;6.626;2022-09-21T07:25:47;97330.81;;;16.11;48.72
60228;BME280;46091;46.512;6.626;2022-09-21T07:27:52;97323.78;;;16.16;48.65
60228;BME280;46091;46.512;6.626;2022-09-21T07:29:56;97326.03;;;16.19;48.85
60228;BME280;46091;46.512;6.626;2022-09-21T07:32:00;97326.44;;;16.23;48.55
60228;BME280;46091;46.512;6.626;2022-09-21T07:34:05;97330.94;;;16.22;48.47
60228;BME280;46091;46.512;6.626;2022-09-21T07:36:10;97330.72;;;16.24;48.37
60228;BME280;46091;46.512;6.626;2022-09-21T07:38:16;97326.81;;;16.26;48.41
60228;BME280;46091;46.512;6.626;2022-09-21T07:40:21;97326.38;;;16.29;48.49
60228;BME280;46091;46.512;6.626;2022-09-21T07:42:26;97337.00;;;16.36;48.50
60228;BME280;46091;46.512;6.626;2022-09-21T07:44:32;97332.03;;;16.40;48.31
60228;BME280;46091;46.512;6.626;2022-09-21T07:46:36;97333.25;;;16.44;48.36
60228;BME280;46091;46.512;6.626;2022-09-21T07:48:48;97339.56;;;16.49;48.24
60228;BME280;46091;46.512;6.626;2022-09-21T07:51:00;97335.88;;;16.50;48.25
60228;BME280;46091;46.512;6.626;2022-09-21T07:53:05;97341.81;;;16.52;47.74
60228;BME280;46091;46.512;6.626;2022-09-21T07:55:08;97335.66;;;16.52;47.89
60228;BME280;46091;46.512;6.626;2022-09-21T07:57:12;97339.78;;;16.48;47.90
60228;BME280;46091;46.512;6.626;2022-09-21T07:59:36;97335.72;;;16.45;48.03
60228;BME280;46091;46.512;6.626;2022-09-21T08:01:40;97339.34;;;16.51;48.12
60228;BME280;46091;46.512;6.626;2022-09-21T08:03:44;97345.50;;;16.51;48.09
60228;BME280;46091;46.512;6.626;2022-09-21T08:05:47;97341.06;;;16.45;47.93
60228;BME280;46091;46.512;6.626;2022-09-21T08:07:54;97347.22;;;16.46;47.94
60228;BME280;46091;46.512;6.626;2022-09-21T08:09:57;97341.31;;;16.37;47.88
60228;BME280;46091;46.512;6.626;2022-09-21T08:12:01;97343.38;;;16.35;47.79
60228;BME280;46091;46.512;6.626;2022-09-21T08:14:05;97340.34;;;16.32;48.08
60228;BME280;46091;46.512;6.626;2022-09-21T08:16:10;97345.66;;;16.32;48.16
60228;BME280;46091;46.512;6.626;2022-09-21T08:18:15;97336.63;;;16.33;48.02
60228;BME280;46091;46.512;6.626;2022-09-21T08:20:19;97331.28;;;16.33;47.82
60228;BME280;46091;46.512;6.626;2022-09-21T08:22:24;97339.44;;;16.38;47.91
60228;BME280;46091;46.512;6.626;2022-09-21T08:24:28;97341.44;;;16.49;47.89
60228;BME280;46091;46.512;6.626;2022-09-21T08:26:32;97331.56;;;16.49;47.75
60228;BME280;46091;46.512;6.626;2022-09-21T08:28:36;97344.66;;;16.57;47.61
60228;BME280;46091;46.512;6.626;2022-09-21T08:30:40;97332.81;;;16.47;47.62
60228;BME280;46091;46.512;6.626;2022-09-21T08:32:45;97330.97;;;16.47;47.86
60228;BME280;46091;46.512;6.626;2022-09-21T08:34:52;97340.34;;;16.56;47.45
60228;BME280;46091;46.512;6.626;2022-09-21T08:36:55;97332.13;;;16.58;47.35
60228;BME280;46091;46.512;6.626;2022-09-21T08:38:59;97337.47;;;16.58;47.46
60228;BME280;46091;46.512;6.626;2022-09-21T08:41:13;97334.56;;;16.59;47.48
60228;BME280;46091;46.512;6.626;2022-09-21T08:43:24;97331.91;;;16.59;47.36
60228;BME280;46091;46.512;6.626;2022-09-21T08:45:33;97343.16;;;16.68;47.17
60228;BME280;46091;46.512;6.626;2022-09-21T08:47:42;97335.88;;;16.75;47.27
60228;BME280;46091;46.512;6.626;2022-09-21T08:49:50;97327.25;;;16.80;47.32
60228;BME280;46091;46.512;6.626;2022-09-21T08:51:57;97331.91;;;16.84;47.07
60228;BME280;46091;46.512;6.626;2022-09-21T08:54:06;97326.97;;;16.88;47.18
60228;BME280;46091;46.512;6.626;2022-09-21T08:56:13;97328.81;;;16.87;46.86
60228;BME280;46091;46.512;6.626;2022-09-21T08:58:21;97331.88;;;16.91;47.11
60228;BME280;46091;46.512;6.626;2022-09-21T09:00:26;97335.34;;;16.92;47.23
60228;BME280;46091;46.512;6.626;2022-09-21T09:02:39;97331.59;;;16.99;46.87
60228;BME280;46091;46.512;6.626;2022-09-21T09:04:52;97336.03;;;17.05;46.82
60228;BME280;46091;46.512;6.626;2022-09-21T09:07:12;97326.91;;;17.13;46.90
60228;BME280;46091;46.512;6.626;2022-09-21T09:09:39;97325.72;;;17.09;46.59
60228;BME280;46091;46.512;6.626;2022-09-21T09:11:54;97322.44;;;17.07;46.64
60228;BME280;46091;46.512;6.626;2022-09-21T09:14:22;97322.84;;;17.10;46.52
60228;BME280;46091;46.512;6.626;2022-09-21T09:16:33;97317.50;;;17.10;46.58
60228;BME280;46091;46.512;6.626;2022-09-21T09:18:42;97320.09;;;17.17;46.67
60228;BME280;46091;46.512;6.626;2022-09-21T09:20:54;97312.38;;;17.27;46.36
60228;BME280;46091;46.512;6.626;2022-09-21T09:23:08;97319.72;;;17.32;46.26
60228;BME280;46091;46.512;6.626;2022-09-21T09:25:18;97312.72;;;17.31;46.20
60228;BME280;46091;46.512;6.626;2022-09-21T09:27:27;97309.03;;;17.32;46.31
60228;BME280;46091;46.512;6.626;2022-09-21T09:29:39;97309.19;;;17.37;46.18
60228;BME280;46091;46.512;6.626;2022-09-21T09:31:47;97309.19;;;17.37;46.38
60228;BME280;46091;46.512;6.626;2022-09-21T09:33:55;97308.13;;;17.38;46.24
60228;BME280;46091;46.512;6.626;2022-09-21T09:36:06;97316.75;;;17.40;46.23
60228;BME280;46091;46.512;6.626;2022-09-21T09:38:14;97312.97;;;17.48;46.18
60228;BME280;46091;46.512;6.626;2022-09-21T09:42:58;97307.53;;;17.54;46.10
60228;BME280;46091;46.512;6.626;2022-09-21T09:47:50;97298.84;;;17.59;45.82
60228;BME280;46091;46.512;6.626;2022-09-21T09:50:04;97301.88;;;17.62;45.78
60228;BME280;46091;46.512;6.626;2022-09-21T09:52:11;97300.00;;;17.63;45.77
60228;BME280;46091;46.512;6.626;2022-09-21T09:54:26;97292.75;;;17.70;45.68
60228;BME280;46091;46.512;6.626;2022-09-21T09:56:31;97291.25;;;17.74;45.75
60228;BME280;46091;46.512;6.626;2022-09-21T09:58:40;97286.88;;;17.80;45.52
60228;BME280;46091;46.512;6.626;2022-09-21T10:00:45;97286.41;;;17.83;45.54
60228;BME280;46091;46.512;6.626;2022-09-21T10:02:51;97292.00;;;17.81;45.49
60228;BME280;46091;46.512;6.626;2022-09-21T10:04:58;97274.91;;;17.82;45.58
60228;BME280;46091;46.512;6.626;2022-09-21T10:07:18;97281.88;;;17.83;45.25
60228;BME280;46091;46.512;6.626;2022-09-21T10:09:26;97273.28;;;17.81;45.32
60228;BME280;46091;46.512;6.626;2022-09-21T10:11:37;97261.66;;;17.87;45.44
60228;BME280;46091;46.512;6.626;2022-09-21T10:13:41;97268.44;;;17.90;45.37
60228;BME280;46091;46.512;6.626;2022-09-21T10:15:48;97261.00;;;17.92;45.16
60228;BME280;46091;46.512;6.626;2022-09-21T10:17:59;97265.06;;;17.94;45.15
60228;BME280;46091;46.512;6.626;2022-09-21T10:20:05;97262.97;;;17.96;44.97
60228;BME280;46091;46.512;6.626;2022-09-21T10:22:15;97270.53;;;17.99;45.18
60228;BME280;46091;46.512;6.626;2022-09-21T10:24:22;97265.78;;;18.01;45.00
60228;BME280;46091;46.512;6.626;2022-09-21T10:26:30;97263.69;;;18.03;44.93
60228;BME280;46091;46.512;6.626;2022-09-21T10:28:35;97259.97;;;18.04;44.91
60228;BME280;46091;46.512;6.626;2022-09-21T10:30:38;97267.53;;;18.08;44.76
60228;BME280;46091;46.512;6.626;2022-09-21T10:32:44;97260.91;;;18.10;44.75
60228;BME280;46091;46.512;6.626;2022-09-21T10:35:12;97257.19;;;18.11;44.44
60228;BME280;46091;46.512;6.626;2022-09-21T10:37:25;97252.78;;;18.17;44.72
60228;BME280;46091;46.512;6.626;2022-09-21T10:39:31;97252.31;;;18.20;44.52
60228;BME280;46091;46.512;6.626;2022-09-21T10:41:35;97257.56;;;18.26;44.44
60228;BME280;46091;46.512;6.626;2022-09-21T10:43:40;97254.91;;;18.26;44.36
60228;BME280;46091;46.512;6.626;2022-09-21T10:45:52;97244.44;;;18.25;44.29
60228;BME280;46091;46.512;6.626;2022-09-21T10:47:59;97246.63;;;18.28;44.38
60228;BME280;46091;46.512;6.626;2022-09-21T10:50:22;97251.75;;;18.29;44.33
60228;BME280;46091;46.512;6.626;2022-09-21T10:52:32;97250.03;;;18.35;44.27
60228;BME280;46091;46.512;6.626;2022-09-21T10:54:38;97254.91;;;18.38;44.01
60228;BME280;46091;46.512;6.626;2022-09-21T10:56:50;97249.31;;;18.40;44.17
60228;BME280;46091;46.512;6.626;2022-09-21T10:59:11;97238.97;;;18.43;44.00
60228;BME280;46091;46.512;6.626;2022-09-21T11:01:21;97236.84;;;18.45;43.93
60228;BME280;46091;46.512;6.626;2022-09-21T11:03:41;97249.81;;;18.48;43.74
60228;BME280;46091;46.512;6.626;2022-09-21T11:05:48;97244.44;;;18.48;43.99
60228;BME280;46091;46.512;6.626;2022-09-21T11:07:56;97249.34;;;18.51;44.04
60228;BME280;46091;46.512;6.626;2022-09-21T11:10:09;97247.69;;;18.50;44.26
60228;BME280;46091;46.512;6.626;2022-09-21T11:12:28;97245.25;;;18.49;44.37
60228;BME280;46091;46.512;6.626;2022-09-21T11:14:43;97243.16;;;18.51;44.44
60228;BME280;46091;46.512;6.626;2022-09-21T11:16:53;97242.94;;;18.52;44.40
60228;BME280;46091;46.512;6.626;2022-09-21T11:19:02;97238.63;;;18.51;44.56
60228;BME280;46091;46.512;6.626;2022-09-21T11:21:14;97240.25;;;18.52;44.63
60228;BME280;46091;46.512;6.626;2022-09-21T11:23:32;97232.78;;;18.54;44.66
60228;BME280;46091;46.512;6.626;2022-09-21T11:25:45;97228.63;;;18.58;44.67
60228;BME280;46091;46.512;6.626;2022-09-21T11:27:56;97229.19;;;18.60;44.65
60228;BME280;46091;46.512;6.626;2022-09-21T11:30:05;97233.50;;;18.61;44.92
60228;BME280;46091;46.512;6.626;2022-09-21T11:32:28;97230.59;;;18.63;44.88
60228;BME280;46091;46.512;6.626;2022-09-21T11:34:54;97214.88;;;18.55;45.02
60228;BME280;46091;46.512;6.626;2022-09-21T11:37:10;97223.97;;;18.66;45.08
60228;BME280;46091;46.512;6.626;2022-09-21T11:39:23;97225.22;;;18.63;45.16
60228;BME280;46091;46.512;6.626;2022-09-21T11:41:44;97223.38;;;18.63;45.19
60228;BME280;46091;46.512;6.626;2022-09-21T11:44:12;97216.19;;;18.64;45.31
60228;BME280;46091;46.512;6.626;2022-09-21T11:46:25;97220.25;;;18.67;45.34
60228;BME280;46091;46.512;6.626;2022-09-21T11:48:51;97219.81;;;18.70;45.40
60228;BME280;46091;46.512;6.626;2022-09-21T11:51:07;97215.25;;;18.70;45.35
60228;BME280;46091;46.512;6.626;2022-09-21T11:53:30;97220.94;;;18.74;45.61
60228;BME280;46091;46.512;6.626;2022-09-21T11:55:51;97217.94;;;18.70;45.54
60228;BME280;46091;46.512;6.626;2022-09-21T11:58:03;97213.63;;;18.69;45.56
60228;BME280;46091;46.512;6.626;2022-09-21T12:00:13;97217.69;;;18.72;45.57
60228;BME280;46091;46.512;6.626;2022-09-21T12:02:31;97208.38;;;18.74;45.60
60228;BME280;46091;46.512;6.626;2022-09-21T12:04:42;97213.50;;;18.76;45.60
60228;BME280;46091;46.512;6.626;2022-09-21T12:07:04;97208.63;;;18.73;45.55
60228;BME280;46091;46.512;6.626;2022-09-21T12:09:29;97211.53;;;18.71;45.66
60228;BME280;46091;46.512;6.626;2022-09-21T12:11:40;97210.72;;;18.71;45.72
60228;BME280;46091;46.512;6.626;2022-09-21T12:13:53;97203.72;;;18.70;45.80
60228;BME280;46091;46.512;6.626;2022-09-21T12:16:04;97205.13;;;18.72;45.75
60228;BME280;46091;46.512;6.626;2022-09-21T12:18:17;97208.94;;;18.76;45.54
60228;BME280;46091;46.512;6.626;2022-09-21T12:20:32;97201.63;;;18.72;45.74
60228;BME280;46091;46.512;6.626;2022-09-21T12:22:42;97203.25;;;18.73;45.66
60228;BME280;46091;46.512;6.626;2022-09-21T12:24:50;97198.72;;;18.73;45.81
60228;BME280;46091;46.512;6.626;2022-09-21T12:26:56;97198.00;;;18.78;45.74
60228;BME280;46091;46.512;6.626;2022-09-21T12:29:06;97203.34;;;18.78;45.81
60228;BME280;46091;46.512;6.626;2022-09-21T12:31:20;97199.53;;;18.74;45.82
60228;BME280;46091;46.512;6.626;2022-09-21T12:33:31;97196.94;;;18.79;45.61
60228;BME280;46091;46.512;6.626;2022-09-21T12:35:40;97206.41;;;18.81;45.73
60228;BME280;46091;46.512;6.626;2022-09-21T12:37:53;97194.25;;;18.79;45.59
60228;BME280;46091;46.512;6.626;2022-09-21T12:40:04;97195.69;;;18.81;45.64
60228;BME280;46091;46.512;6.626;2022-09-21T12:42:20;97196.94;;;18.79;45.61
60228;BME280;46091;46.512;6.626;2022-09-21T12:44:32;97193.81;;;18.82;45.67
60228;BME280;46091;46.512;6.626;2022-09-21T12:46:57;97189.03;;;18.84;45.50
60228;BME280;46091;46.512;6.626;2022-09-21T12:49:15;97190.66;;;18.85;45.66
60228;BME280;46091;46.512;6.626;2022-09-21T12:51:25;97193.09;;;18.86;45.54
60228;BME280;46091;46.512;6.626;2022-09-21T12:53:32;97184.00;;;18.87;45.69
60228;BME280;46091;46.512;6.626;2022-09-21T12:55:41;97181.91;;;18.89;45.52
60228;BME280;46091;46.512;6.626;2022-09-21T12:57:55;97190.31;;;18.93;45.78
60228;BME280;46091;46.512;6.626;2022-09-21T13:00:19;97183.06;;;18.94;45.36
60228;BME280;46091;46.512;6.626;2022-09-21T13:02:29;97184.47;;;18.96;45.68
60228;BME280;46091;46.512;6.626;2022-09-21T13:04:43;97182.59;;;18.97;45.57
60228;BME280;46091;46.512;6.626;2022-09-21T13:07:20;97178.53;;;18.94;45.57
60228;BME280;46091;46.512;6.626;2022-09-21T13:09:32;97186.19;;;19.02;45.44
60228;BME280;46091;46.512;6.626;2022-09-21T13:11:48;97183.28;;;19.04;45.56
60228;BME280;46091;46.512;6.626;2022-09-21T13:13:57;97177.69;;;19.05;45.43
60228;BME280;46091;46.512;6.626;2022-09-21T13:16:04;97189.88;;;19.13;45.26
60228;BME280;46091;46.512;6.626;2022-09-21T13:18:17;97177.28;;;19.13;45.33
60228;BME280;46091;46.512;6.626;2022-09-21T13:20:22;97181.63;;;19.14;45.35
60228;BME280;46091;46.512;6.626;2022-09-21T13:22:29;97183.81;;;19.17;45.39
60228;BME280;46091;46.512;6.626;2022-09-21T13:24:34;97181.72;;;19.19;45.29
60228;BME280;46091;46.512;6.626;2022-09-21T13:26:39;97181.22;;;19.23;45.43
60228;BME280;46091;46.512;6.626;2022-09-21T13:29:07;97177.03;;;19.27;45.19
60228;BME280;46091;46.512;6.626;2022-09-21T13:31:56;97187.75;;;19.27;45.27
60228;BME280;46091;46.512;6.626;2022-09-21T13:34:19;97185.97;;;19.32;45.13
60228;BME280;46091;46.512;6.626;2022-09-21T13:36:31;97185.16;;;19.32;45.13
60228;BME280;46091;46.512;6.626;2022-09-21T13:38:57;97193.78;;;19.34;45.11
60228;BME280;46091;46.512;6.626;2022-09-21T13:41:23;97192.47;;;19.36;45.11
60228;BME280;46091;46.512;6.626;2022-09-21T13:43:59;97197.63;;;19.38;45.11
60228;BME280;46091;46.512;6.626;2022-09-21T13:46:06;97194.69;;;19.39;44.83
60228;BME280;46091;46.512;6.626;2022-09-21T13:48:18;97194.47;;;19.41;45.00
60228;BME280;46091;46.512;6.626;2022-09-21T13:50:35;97194.47;;;19.41;44.98
60228;BME280;46091;46.512;6.626;2022-09-21T13:52:43;97183.72;;;19.41;44.77
60228;BME280;46091;46.512;6.626;2022-09-21T13:54:50;97193.16;;;19.43;44.87
60228;BME280;46091;46.512;6.626;2022-09-21T13:57:05;97193.97;;;19.44;44.80
60228;BME280;46091;46.512;6.626;2022-09-21T13:59:19;97184.88;;;19.45;44.87
60228;BME280;46091;46.512;6.626;2022-09-21T14:01:29;97194.53;;;19.46;44.67
60228;BME280;46091;46.512;6.626;2022-09-21T14:03:52;97199.66;;;19.47;44.50
60228;BME280;46091;46.512;6.626;2022-09-21T14:06:01;97194.78;;;19.44;44.66
60228;BME280;46091;46.512;6.626;2022-09-21T14:08:20;97182.75;;;19.47;44.48
60228;BME280;46091;46.512;6.626;2022-09-21T14:10:24;97179.63;;;19.50;44.48
60228;BME280;46091;46.512;6.626;2022-09-21T14:12:33;97181.25;;;19.51;44.42
60228;BME280;46091;46.512;6.626;2022-09-21T14:14:40;97175.31;;;19.49;44.37
60228;BME280;46091;46.512;6.626;2022-09-21T14:16:54;97182.97;;;19.57;44.23
60228;BME280;46091;46.512;6.626;2022-09-21T14:19:01;97186.72;;;19.56;44.09
60228;BME280;46091;46.512;6.626;2022-09-21T14:21:13;97195.81;;;19.55;43.99
60228;BME280;46091;46.512;6.626;2022-09-21T14:23:27;97200.34;;;19.55;44.04
60228;BME280;46091;46.512;6.626;2022-09-21T14:25:50;97197.91;;;19.53;43.80
60228;BME280;46091;46.512;6.626;2022-09-21T14:27:58;97170.63;;;19.56;43.88
60228;BME280;46091;46.512;6.626;2022-09-21T14:30:04;97165.84;;;19.58;43.45
60228;BME280;46091;46.512;6.626;2022-09-21T14:32:14;97179.91;;;19.65;43.48
60228;BME280;46091;46.512;6.626;2022-09-21T14:34:22;97178.38;;;19.69;43.27
60228;BME280;46091;46.512;6.626;2022-09-21T14:36:32;97183.03;;;19.74;43.24
60228;BME280;46091;46.512;6.626;2022-09-21T14:38:43;97191.97;;;19.80;42.90
60228;BME280;46091;46.512;6.626;2022-09-21T14:40:57;97203.03;;;19.83;42.79
60228;BME280;46091;46.512;6.626;2022-09-21T14:43:06;97204.41;;;19.86;43.05
60228;BME280;46091;46.512;6.626;2022-09-21T14:45:13;97198.81;;;19.87;42.87
60228;BME280;46091;46.512;6.626;2022-09-21T14:47:45;97203.13;;;19.88;42.83
60228;BME280;46091;46.512;6.626;2022-09-21T14:50:00;97211.41;;;19.87;42.53
60228;BME280;46091;46.512;6.626;2022-09-21T14:52:18;97200.56;;;19.82;42.54
60228;BME280;46091;46.512;6.626;2022-09-21T14:54:38;97210.50;;;19.81;42.50
60228;BME280;46091;46.512;6.626;2022-09-21T14:56:55;97196.28;;;19.81;42.26
60228;BME280;46091;46.512;6.626;2022-09-21T14:59:12;97205.94;;;19.82;42.09
60228;BME280;46091;46.512;6.626;2022-09-21T15:01:34;97205.13;;;19.81;41.97
60228;BME280;46091;46.512;6.626;2022-09-21T15:03:58;97201.41;;;19.82;41.64
60228;BME280;46091;46.512;6.626;2022-09-21T15:06:15;97201.63;;;19.81;41.73
60228;BME280;46091;46.512;6.626;2022-09-21T15:08:48;97201.63;;;19.81;41.52
60228;BME280;46091;46.512;6.626;2022-09-21T15:11:16;97208.06;;;19.80;41.40
60228;BME280;46091;46.512;6.626;2022-09-21T15:16:07;97200.00;;;19.80;41.17
60228;BME280;46091;46.512;6.626;2022-09-21T15:18:20;97204.56;;;19.79;41.22
60228;BME280;46091;46.512;6.626;2022-09-21T15:20:25;97208.06;;;19.80;41.13
60228;BME280;46091;46.512;6.626;2022-09-21T15:22:30;97211.22;;;19.76;40.58
60228;BME280;46091;46.512;6.626;2022-09-21T15:24:33;97210.09;;;19.72;40.74
60228;BME280;46091;46.512;6.626;2022-09-21T15:26:37;97210.56;;;19.69;40.76
60228;BME280;46091;46.512;6.626;2022-09-21T15:28:42;97211.28;;;19.65;40.59
60228;BME280;46091;46.512;6.626;2022-09-21T15:31:09;97210.47;;;19.64;40.70
60228;BME280;46091;46.512;6.626;2022-09-21T15:33:13;97206.75;;;19.65;40.64
60228;BME280;46091;46.512;6.626;2022-09-21T15:35:18;97203.16;;;19.60;40.39
60228;BME280;46091;46.512;6.626;2022-09-21T15:37:22;97206.56;;;19.55;40.57
60228;BME280;46091;46.512;6.626;2022-09-21T15:39:29;97214.34;;;19.57;40.30
60228;BME280;46091;46.512;6.626;2022-09-21T15:41:38;97209.44;;;19.54;40.42
60228;BME280;46091;46.512;6.626;2022-09-21T15:43:41;97209.44;;;19.54;40.46
60228;BME280;46091;46.512;6.626;2022-09-21T15:45:51;97221.22;;;19.53;40.13
60228;BME280;46091;46.512;6.626;2022-09-21T15:47:57;97212.25;;;19.47;40.38
60228;BME280;46091;46.512;6.626;2022-09-21T15:50:00;97213.31;;;19.46;40.36
60228;BME280;46091;46.512;6.626;2022-09-21T15:52:09;97224.28;;;19.44;40.08
60228;BME280;46091;46.512;6.626;2022-09-21T15:54:24;97223.47;;;19.44;39.84
60228;BME280;46091;46.512;6.626;2022-09-21T15:56:29;97219.97;;;19.43;39.98
60228;BME280;46091;46.512;6.626;2022-09-21T15:58:34;97221.75;;;19.38;39.82
60228;BME280;46091;46.512;6.626;2022-09-21T16:00:38;97222.81;;;19.37;39.94
60228;BME280;46091;46.512;6.626;2022-09-21T16:02:49;97223.84;;;19.36;39.91
60228;BME280;46091;46.512;6.626;2022-09-21T16:04:53;97225.13;;;19.33;39.73
60228;BME280;46091;46.512;6.626;2022-09-21T16:07:00;97231.31;;;19.34;39.76
60228;BME280;46091;46.512;6.626;2022-09-21T16:09:27;97239.34;;;19.34;39.61
60228;BME280;46091;46.512;6.626;2022-09-21T16:11:37;97233.41;;;19.32;39.67
60228;BME280;46091;46.512;6.626;2022-09-21T16:13:40;97243.00;;;19.28;39.46
60228;BME280;46091;46.512;6.626;2022-09-21T16:16:03;97233.78;;;19.24;39.54
60228;BME280;46091;46.512;6.626;2022-09-21T16:18:28;97236.13;;;19.20;39.57
60228;BME280;46091;46.512;6.626;2022-09-21T16:20:42;97243.13;;;19.21;39.72
60228;BME280;46091;46.512;6.626;2022-09-21T16:22:47;97240.44;;;19.21;39.59
60228;BME280;46091;46.512;6.626;2022-09-21T16:24:53;97246.59;;;19.22;39.61
60228;BME280;46091;46.512;6.626;2022-09-21T16:27:00;97242.78;;;19.17;39.46
60228;BME280;46091;46.512;6.626;2022-09-21T16:29:19;97240.09;;;19.17;39.43
60228;BME280;46091;46.512;6.626;2022-09-21T16:31:31;97243.84;;;19.16;39.50
60228;BME280;46091;46.512;6.626;2022-09-21T16:33:40;97248.16;;;19.17;39.52
60228;BME280;46091;46.512;6.626;2022-09-21T16:35:43;97248.97;;;19.18;39.42
60228;BME280;46091;46.512;6.626;2022-09-21T16:37:48;97249.19;;;19.16;39.47
60228;BME280;46091;46.512;6.626;2022-09-21T16:39:51;97253.50;;;19.17;39.37
60228;BME280;46091;46.512;6.626;2022-09-21T16:41:56;97248.16;;;19.17;39.26
60228;BME280;46091;46.512;6.626;2022-09-21T16:44:02;97263.06;;;19.13;39.35
60228;BME280;46091;46.512;6.626;2022-09-21T16:46:05;97253.84;;;19.09;39.24
60228;BME280;46091;46.512;6.626;2022-09-21T16:48:10;97255.97;;;19.07;39.34
60228;BME280;46091;46.512;6.626;2022-09-21T16:50:14;97261.00;;;19.04;39.33
60228;BME280;46091;46.512;6.626;2022-09-21T16:52:19;97262.84;;;19.03;39.54
60228;BME280;46091;46.512;6.626;2022-09-21T16:54:23;97262.50;;;19.00;39.34
60228;BME280;46091;46.512;6.626;2022-09-21T16:56:27;97260.06;;;18.98;39.28
60228;BME280;46091;46.512;6.626;2022-09-21T16:58:31;97263.78;;;18.97;39.34
60228;BME280;46091;46.512;6.626;2022-09-21T17:00:39;97258.44;;;18.97;39.38
60228;BME280;46091;46.512;6.626;2022-09-21T17:02:43;97263.78;;;18.97;39.36
60228;BME280;46091;46.512;6.626;2022-09-21T17:04:46;97263.22;;;18.95;39.26
60228;BME280;46091;46.512;6.626;2022-09-21T17:06:50;97263.44;;;18.94;39.37
60228;BME280;46091;46.512;6.626;2022-09-21T17:08:53;97268.22;;;18.92;39.34
60228;BME280;46091;46.512;6.626;2022-09-21T17:10:56;97269.84;;;18.93;39.33